createdAt,value
2016-11-24T00:00:28.314Z,8.28
2016-11-24T00:01:28.419Z,8.21
2016-11-24T00:02:28.311Z,8.19
2016-11-24T00:03:28.285Z,8.22
2016-11-24T00:04:28.171Z,8.25
2016-11-24T00:05:28.286Z,8.21
2016-11-24T00:06:28.434Z,8.13
2016-11-24T00:07:28.712Z,8.09
2016-11-24T00:08:28.158Z,8.22
2016-11-24T00:09:28.184Z,8.11
2016-11-24T00:10:28.301Z,8.13
2016-11-24T00:11:28.329Z,8.24
2016-11-24T00:12:28.323Z,8.17
2016-11-24T00:13:28.309Z,8.13
2016-11-24T00:14:28.178Z,8.11
2016-11-24T00:15:28.459Z,8.14
2016-11-24T00:16:28.393Z,8.09
2016-11-24T00:17:28.341Z,8.17
2016-11-24T00:18:28.495Z,8.13
2016-11-24T00:19:28.468Z,8.1
2016-11-24T00:20:28.315Z,8.21
2016-11-24T00:21:28.464Z,8.25
2016-11-24T00:22:28.329Z,8.24
2016-11-24T00:23:28.390Z,8.21
2016-11-24T00:24:28.203Z,8.25
2016-11-24T00:25:28.349Z,8.17
2016-11-24T00:26:28.343Z,8.14
2016-11-24T00:27:28.223Z,8.21
2016-11-24T00:28:28.488Z,8.07
2016-11-24T00:29:28.510Z,8.07
2016-11-24T00:30:28.532Z,8.07
2016-11-24T00:31:28.359Z,8.19
2016-11-24T00:32:28.393Z,8.13
2016-11-24T00:33:28.229Z,8.11
2016-11-24T00:34:28.273Z,8.14
2016-11-24T00:35:28.226Z,8.1
2016-11-24T00:36:28.383Z,8.06
2016-11-24T00:37:28.248Z,8.11
2016-11-24T00:38:28.534Z,8.16
2016-11-24T00:39:28.415Z,8.14
2016-11-24T00:40:28.533Z,8.11
2016-11-24T00:41:28.383Z,8.06
2016-11-24T00:42:28.385Z,8.11
2016-11-24T00:43:28.527Z,8.09
2016-11-24T00:44:28.526Z,8.11
2016-11-24T00:45:28.490Z,8.04
2016-11-24T00:46:28.395Z,8.1
2016-11-24T00:47:28.388Z,8.1
2016-11-24T00:48:28.407Z,8.07
2016-11-24T00:49:28.540Z,8.09
2016-11-24T00:50:28.571Z,8.04
2016-11-24T00:51:28.410Z,8.06
2016-11-24T00:52:28.422Z,8.07
2016-11-24T00:53:28.422Z,7.99
2016-11-24T00:54:28.399Z,8.16
2016-11-24T00:55:28.600Z,8.09
2016-11-24T00:56:28.311Z,8.13
2016-11-24T00:57:28.433Z,8.14
2016-11-24T00:58:28.582Z,8.07
2016-11-24T00:59:28.289Z,8.07
2016-11-24T01:00:28.292Z,8.04
2016-11-24T01:01:28.442Z,8.17
2016-11-24T01:02:28.447Z,8.13
2016-11-24T01:03:28.312Z,8.03
2016-11-24T01:04:28.466Z,8.07
2016-11-24T01:05:28.594Z,8.11
2016-11-24T01:06:28.485Z,8.07
2016-11-24T01:07:28.467Z,8.17
2016-11-24T01:08:28.738Z,8.13
2016-11-24T01:09:28.458Z,8.09
2016-11-24T01:10:28.476Z,8.19
2016-11-24T01:11:28.930Z,8.07
2016-11-24T01:12:28.612Z,8.14
2016-11-24T01:13:28.482Z,8.14
2016-11-24T01:14:28.481Z,8.24
2016-11-24T01:15:28.656Z,8.21
2016-11-24T01:16:28.496Z,8.17
2016-11-24T01:17:28.672Z,8.1
2016-11-24T01:18:28.664Z,8.19
2016-11-24T01:19:28.637Z,8.24
2016-11-24T01:20:28.484Z,8.07
2016-11-24T01:21:28.490Z,8.11
2016-11-24T01:22:28.671Z,8.07
2016-11-24T01:23:28.514Z,8.09
2016-11-24T01:24:28.669Z,8.1
2016-11-24T01:25:28.655Z,8.1
2016-11-24T01:26:28.360Z,8.11
2016-11-24T01:27:28.539Z,8.17
2016-11-24T01:28:28.666Z,8.25
2016-11-24T01:29:28.532Z,8.24
2016-11-24T01:30:28.537Z,8.24
2016-11-24T01:31:28.669Z,8.19
2016-11-24T01:32:28.580Z,8.24
2016-11-24T01:33:28.537Z,8.21
2016-11-24T01:34:28.544Z,8.19
2016-11-24T01:35:28.527Z,8.11
2016-11-24T01:36:28.400Z,8.21
2016-11-24T01:37:28.409Z,8.11
2016-11-24T01:38:28.559Z,8.16
2016-11-24T01:39:28.544Z,8.1
2016-11-24T01:40:28.556Z,8.17
2016-11-24T01:41:28.566Z,8.29
2016-11-24T01:42:28.569Z,8.28
2016-11-24T01:43:28.583Z,8.16
2016-11-24T01:44:28.573Z,8.11
2016-11-24T01:45:28.581Z,8.11
2016-11-24T01:46:28.447Z,8.28
2016-11-24T01:47:28.555Z,8.34
2016-11-24T01:48:28.605Z,8.29
2016-11-24T01:49:28.637Z,8.24
2016-11-24T01:50:28.575Z,8.31
2016-11-24T01:51:28.726Z,8.32
2016-11-24T01:52:28.587Z,8.44
2016-11-24T01:53:28.738Z,8.39
2016-11-24T01:54:28.487Z,8.42
2016-11-24T01:55:28.750Z,8.39
2016-11-24T01:56:28.604Z,8.4
2016-11-24T01:57:28.607Z,8.42
2016-11-24T01:58:28.760Z,8.43
2016-11-24T01:59:28.493Z,8.36
2016-11-24T02:00:28.628Z,8.44
2016-11-24T02:01:28.757Z,8.35
2016-11-24T02:02:28.751Z,8.4
2016-11-24T02:03:28.920Z,8.4
2016-11-24T02:04:28.475Z,8.32
2016-11-24T02:05:28.615Z,8.36
2016-11-24T02:06:28.478Z,8.35
2016-11-24T02:07:28.633Z,8.39
2016-11-24T02:08:28.770Z,8.46
2016-11-24T02:09:28.774Z,8.4
2016-11-24T02:10:28.644Z,8.4
2016-11-24T02:11:28.627Z,8.42
2016-11-24T02:12:28.650Z,8.43
2016-11-24T02:13:28.499Z,8.34
2016-11-24T02:14:28.787Z,8.44
2016-11-24T02:15:28.680Z,8.39
2016-11-24T02:16:28.655Z,8.4
2016-11-24T02:17:28.813Z,8.42
2016-11-24T02:18:28.654Z,8.46
2016-11-24T02:19:28.520Z,8.42
2016-11-24T02:20:28.668Z,8.42
2016-11-24T02:21:28.524Z,8.44
2016-11-24T02:22:28.543Z,8.42
2016-11-24T02:23:28.801Z,8.4
2016-11-24T02:24:28.685Z,8.47
2016-11-24T02:25:28.686Z,8.39
2016-11-24T02:26:28.711Z,8.43
2016-11-24T02:27:28.824Z,8.42
2016-11-24T02:28:28.534Z,8.43
2016-11-24T02:29:28.830Z,8.44
2016-11-24T02:30:28.685Z,8.4
2016-11-24T02:31:29.038Z,8.43
2016-11-24T02:32:28.555Z,8.4
2016-11-24T02:33:28.734Z,8.35
2016-11-24T02:34:28.711Z,8.4
2016-11-24T02:35:28.712Z,8.44
2016-11-24T02:36:28.703Z,8.43
2016-11-24T02:37:28.722Z,8.36
2016-11-24T02:38:28.870Z,8.39
2016-11-24T02:39:28.719Z,8.39
2016-11-24T02:40:28.578Z,8.42
2016-11-24T02:41:28.716Z,8.44
2016-11-24T02:42:28.600Z,8.44
2016-11-24T02:43:28.739Z,8.36
2016-11-24T02:44:28.868Z,8.35
2016-11-24T02:45:28.738Z,8.4
2016-11-24T02:46:28.721Z,8.32
2016-11-24T02:47:28.911Z,8.36
2016-11-24T02:48:28.734Z,8.4
2016-11-24T02:49:28.891Z,8.34
2016-11-24T02:50:28.964Z,8.36
2016-11-24T02:51:28.752Z,8.4
2016-11-24T02:52:28.747Z,8.34
2016-11-24T02:53:28.897Z,8.4
2016-11-24T02:54:28.891Z,8.34
2016-11-24T02:55:28.772Z,8.32
2016-11-24T02:56:28.922Z,8.35
2016-11-24T02:57:28.773Z,8.32
2016-11-24T02:58:28.774Z,8.36
2016-11-24T02:59:28.628Z,8.32
2016-11-24T03:00:28.912Z,8.32
2016-11-24T03:01:28.773Z,8.39
2016-11-24T03:02:28.629Z,8.28
2016-11-24T03:03:28.822Z,8.24
2016-11-24T03:04:28.793Z,8.17
2016-11-24T03:05:28.944Z,8.22
2016-11-24T03:06:28.815Z,8.17
2016-11-24T03:07:28.794Z,8.35
2016-11-24T03:08:28.797Z,8.22
2016-11-24T03:09:28.799Z,8.13
2016-11-24T03:10:28.802Z,8.14
2016-11-24T03:11:28.796Z,8.24
2016-11-24T03:12:28.796Z,8.35
2016-11-24T03:13:28.973Z,8.28
2016-11-24T03:14:28.694Z,8.17
2016-11-24T03:15:28.811Z,8.22
2016-11-24T03:16:28.825Z,8.17
2016-11-24T03:17:28.960Z,8.1
2016-11-24T03:18:28.688Z,8.14
2016-11-24T03:19:29.102Z,8.17
2016-11-24T03:20:28.830Z,8.25
2016-11-24T03:21:28.915Z,8.25
2016-11-24T03:22:28.980Z,8.13
2016-11-24T03:23:28.841Z,8.11
2016-11-24T03:24:29.175Z,8.19
2016-11-24T03:25:28.832Z,8.16
2016-11-24T03:26:28.856Z,8.31
2016-11-24T03:27:28.852Z,8.28
2016-11-24T03:28:28.985Z,8.31
2016-11-24T03:29:28.992Z,8.25
2016-11-24T03:30:28.872Z,8.34
2016-11-24T03:31:28.857Z,8.16
2016-11-24T03:32:28.875Z,8.16
2016-11-24T03:33:28.881Z,8.19
2016-11-24T03:34:28.866Z,8.16
2016-11-24T03:35:28.769Z,8.22
2016-11-24T03:36:28.884Z,8.11
2016-11-24T03:37:28.872Z,8.24
2016-11-24T03:38:28.885Z,8.14
2016-11-24T03:39:29.036Z,8.22
2016-11-24T03:40:28.894Z,8.24
2016-11-24T03:41:28.899Z,8.28
2016-11-24T03:42:28.912Z,8.31
2016-11-24T03:43:28.752Z,8.26
2016-11-24T03:44:28.763Z,8.25
2016-11-24T03:45:28.900Z,8.19
2016-11-24T03:46:28.909Z,8.4
2016-11-24T03:47:29.046Z,8.34
2016-11-24T03:48:28.911Z,8.4
2016-11-24T03:49:28.911Z,8.39
2016-11-24T03:50:28.940Z,8.44
2016-11-24T03:51:28.948Z,8.58
2016-11-24T03:52:29.009Z,8.46
2016-11-24T03:53:28.926Z,8.5
2016-11-24T03:54:29.073Z,8.49
2016-11-24T03:55:28.802Z,8.47
2016-11-24T03:56:29.066Z,8.54
2016-11-24T03:57:28.940Z,8.53
2016-11-24T03:58:28.934Z,8.47
2016-11-24T03:59:28.938Z,8.57
2016-11-24T04:00:28.934Z,8.49
2016-11-24T04:01:28.796Z,8.54
2016-11-24T04:02:28.985Z,8.46
2016-11-24T04:03:29.086Z,8.49
2016-11-24T04:04:28.949Z,8.57
2016-11-24T04:05:29.091Z,8.44
2016-11-24T04:06:28.812Z,8.65
2016-11-24T04:07:29.129Z,8.68
2016-11-24T04:08:29.106Z,8.68
2016-11-24T04:09:29.126Z,8.58
2016-11-24T04:10:28.972Z,8.58
2016-11-24T04:11:28.971Z,8.61
2016-11-24T04:12:28.836Z,8.72
2016-11-24T04:13:29.112Z,8.69
2016-11-24T04:14:28.846Z,8.69
2016-11-24T04:15:28.978Z,8.64
2016-11-24T04:16:29.126Z,8.61
2016-11-24T04:17:28.982Z,8.67
2016-11-24T04:18:28.874Z,8.6
2016-11-24T04:19:28.991Z,8.57
2016-11-24T04:20:29.000Z,8.57
2016-11-24T04:21:29.005Z,8.53
2016-11-24T04:22:28.877Z,8.54
2016-11-24T04:23:28.931Z,8.53
2016-11-24T04:24:28.867Z,8.47
2016-11-24T04:25:28.911Z,8.62
2016-11-24T04:26:28.875Z,8.47
2016-11-24T04:27:29.026Z,8.39
2016-11-24T04:28:29.161Z,8.4
2016-11-24T04:29:29.025Z,8.35
2016-11-24T04:30:29.188Z,8.43
2016-11-24T04:31:29.166Z,8.42
2016-11-24T04:32:29.036Z,8.46
2016-11-24T04:33:29.025Z,8.4
2016-11-24T04:34:28.924Z,8.39
2016-11-24T04:35:29.035Z,8.43
2016-11-24T04:36:29.052Z,8.52
2016-11-24T04:37:29.055Z,8.36
2016-11-24T04:38:28.907Z,8.44
2016-11-24T04:39:28.925Z,8.32
2016-11-24T04:40:28.904Z,8.32
2016-11-24T04:41:29.055Z,8.26
2016-11-24T04:42:29.067Z,8.22
2016-11-24T04:43:28.924Z,8.22
2016-11-24T04:44:29.064Z,8.31
2016-11-24T04:45:29.208Z,8.26
2016-11-24T04:46:28.935Z,8.36
2016-11-24T04:47:28.939Z,8.32
2016-11-24T04:48:29.074Z,8.21
2016-11-24T04:49:28.954Z,8.25
2016-11-24T04:50:29.103Z,8.28
2016-11-24T04:51:29.094Z,8.16
2016-11-24T04:52:29.105Z,8.24
2016-11-24T04:53:29.086Z,8.17
2016-11-24T04:54:29.196Z,8.13
2016-11-24T04:55:29.126Z,8.25
2016-11-24T04:56:28.965Z,8.16
2016-11-24T04:57:29.119Z,8.17
2016-11-24T04:58:29.239Z,8.22
2016-11-24T04:59:28.964Z,8.13
2016-11-24T05:00:28.967Z,8.22
2016-11-24T05:01:29.279Z,8.17
2016-11-24T05:02:29.112Z,8.16
2016-11-24T05:03:29.263Z,8.13
2016-11-24T05:04:29.119Z,8.1
2016-11-24T05:05:29.271Z,8.26
2016-11-24T05:06:29.280Z,8.09
2016-11-24T05:07:29.134Z,8.1
2016-11-24T05:08:29.125Z,8.19
2016-11-24T05:09:29.127Z,8.09
2016-11-24T05:10:29.138Z,8.24
2016-11-24T05:11:29.139Z,8.17
2016-11-24T05:12:29.004Z,8.09
2016-11-24T05:13:29.140Z,8.17
2016-11-24T05:14:29.146Z,8.14
2016-11-24T05:15:29.153Z,8.14
2016-11-24T05:16:29.148Z,8.11
2016-11-24T05:17:29.300Z,8.16
2016-11-24T05:18:29.294Z,8.19
2016-11-24T05:19:29.166Z,8.24
2016-11-24T05:20:29.293Z,8.09
2016-11-24T05:21:29.307Z,8.19
2016-11-24T05:22:29.186Z,8.16
2016-11-24T05:23:29.312Z,8.11
2016-11-24T05:24:29.189Z,8.22
2016-11-24T05:25:29.347Z,8.19
2016-11-24T05:26:29.180Z,8.24
2016-11-24T05:27:29.059Z,8.16
2016-11-24T05:28:29.042Z,8.09
2016-11-24T05:29:29.050Z,8.09
2016-11-24T05:30:29.191Z,8.22
2016-11-24T05:31:29.198Z,8.21
2016-11-24T05:32:29.197Z,8.22
2016-11-24T05:33:29.068Z,8.14
2016-11-24T05:34:29.352Z,8.16
2016-11-24T05:35:29.060Z,8.24
2016-11-24T05:36:29.215Z,8.11
2016-11-24T05:37:29.070Z,8.09
2016-11-24T05:38:29.097Z,8.11
2016-11-24T05:39:29.355Z,8.14
2016-11-24T05:40:29.220Z,8.07
2016-11-24T05:41:29.087Z,8.06
2016-11-24T05:42:29.215Z,8.22
2016-11-24T05:43:29.237Z,8.11
2016-11-24T05:44:29.094Z,8.13
2016-11-24T05:45:29.240Z,8.19
2016-11-24T05:46:29.247Z,8.09
2016-11-24T05:47:29.243Z,8.13
2016-11-24T05:48:29.114Z,8.14
2016-11-24T05:49:29.247Z,8.11
2016-11-24T05:50:29.097Z,8.09
2016-11-24T05:51:29.247Z,8.14
2016-11-24T05:52:29.241Z,8.14
2016-11-24T05:53:29.249Z,8.24
2016-11-24T05:54:29.145Z,8.13
2016-11-24T05:55:29.264Z,8.14
2016-11-24T05:56:29.134Z,8.25
2016-11-24T05:57:29.274Z,8.25
2016-11-24T05:58:29.267Z,8.14
2016-11-24T05:59:29.416Z,8.29
2016-11-24T06:00:29.173Z,8.28
2016-11-24T06:01:29.140Z,8.24
2016-11-24T06:02:29.283Z,8.39
2016-11-24T06:03:29.283Z,8.36
2016-11-24T06:04:29.142Z,8.25
2016-11-24T06:05:29.438Z,8.25
2016-11-24T06:06:29.286Z,8.26
2016-11-24T06:07:29.438Z,8.36
2016-11-24T06:08:29.302Z,8.29
2016-11-24T06:09:29.294Z,8.35
2016-11-24T06:10:29.349Z,8.43
2016-11-24T06:11:29.442Z,8.35
2016-11-24T06:12:29.308Z,8.39
2016-11-24T06:13:29.317Z,8.31
2016-11-24T06:14:29.207Z,8.42
2016-11-24T06:15:29.313Z,8.34
2016-11-24T06:16:29.173Z,8.43
2016-11-24T06:17:29.461Z,8.36
2016-11-24T06:18:29.488Z,8.43
2016-11-24T06:19:29.457Z,8.39
2016-11-24T06:20:29.189Z,8.44
2016-11-24T06:21:29.328Z,8.4
2016-11-24T06:22:29.340Z,8.44
2016-11-24T06:23:29.335Z,8.43
2016-11-24T06:24:29.335Z,8.49
2016-11-24T06:25:29.209Z,8.44
2016-11-24T06:26:29.258Z,8.46
2016-11-24T06:27:29.479Z,8.52
2016-11-24T06:28:29.348Z,8.5
2016-11-24T06:29:29.348Z,8.43
2016-11-24T06:30:29.509Z,8.46
2016-11-24T06:31:29.393Z,8.53
2016-11-24T06:32:29.359Z,8.44
2016-11-24T06:33:29.507Z,8.44
2016-11-24T06:34:29.377Z,8.43
2016-11-24T06:35:29.228Z,8.35
2016-11-24T06:36:29.520Z,8.4
2016-11-24T06:37:29.377Z,8.44
2016-11-24T06:38:29.388Z,8.42
2016-11-24T06:39:29.516Z,8.43
2016-11-24T06:40:29.391Z,8.52
2016-11-24T06:41:29.378Z,8.49
2016-11-24T06:42:29.566Z,8.46
2016-11-24T06:43:29.392Z,8.46
2016-11-24T06:44:29.387Z,8.43
2016-11-24T06:45:29.393Z,8.43
2016-11-24T06:46:29.401Z,8.44
2016-11-24T06:47:29.607Z,8.47
2016-11-24T06:48:29.553Z,8.42
2016-11-24T06:49:29.554Z,8.44
2016-11-24T06:50:29.278Z,8.44
2016-11-24T06:51:29.317Z,8.46
2016-11-24T06:52:29.556Z,8.39
2016-11-24T06:53:29.272Z,8.43
2016-11-24T06:54:29.440Z,8.43
2016-11-24T06:55:29.438Z,8.46
2016-11-24T06:56:29.477Z,8.39
2016-11-24T06:57:29.429Z,8.35
2016-11-24T06:58:29.636Z,8.44
2016-11-24T06:59:29.586Z,8.42
2016-11-24T07:00:29.431Z,8.36
2016-11-24T07:01:29.473Z,8.39
2016-11-24T07:02:29.472Z,8.39
2016-11-24T07:03:29.337Z,8.44
2016-11-24T07:04:29.459Z,8.42
2016-11-24T07:05:29.483Z,8.39
2016-11-24T07:06:29.462Z,8.43
2016-11-24T07:07:29.707Z,8.4
2016-11-24T07:08:29.537Z,8.5
2016-11-24T07:09:29.476Z,8.43
2016-11-24T07:10:29.499Z,8.42
2016-11-24T07:11:29.522Z,8.4
2016-11-24T07:12:29.642Z,8.4
2016-11-24T07:13:29.423Z,8.46
2016-11-24T07:14:29.566Z,8.53
2016-11-24T07:15:29.500Z,8.52
2016-11-24T07:16:29.504Z,8.44
2016-11-24T07:17:29.351Z,8.47
2016-11-24T07:18:29.512Z,8.5
2016-11-24T07:19:29.540Z,8.53
2016-11-24T07:20:29.506Z,8.53
2016-11-24T07:21:29.525Z,8.52
2016-11-24T07:22:29.662Z,8.43
2016-11-24T07:23:29.516Z,8.47
2016-11-24T07:24:29.372Z,8.49
2016-11-24T07:25:29.657Z,8.52
2016-11-24T07:26:29.382Z,8.52
2016-11-24T07:27:29.545Z,8.57
2016-11-24T07:28:29.542Z,8.43
2016-11-24T07:29:29.561Z,8.42
2016-11-24T07:30:29.428Z,8.4
2016-11-24T07:31:29.419Z,8.36
2016-11-24T07:32:29.537Z,8.43
2016-11-24T07:33:29.669Z,8.42
2016-11-24T07:34:29.781Z,8.44
2016-11-24T07:35:29.567Z,8.43
2016-11-24T07:36:29.407Z,8.39
2016-11-24T07:37:29.699Z,8.42
2016-11-24T07:38:29.561Z,8.4
2016-11-24T07:39:29.559Z,8.35
2016-11-24T07:40:29.628Z,8.42
2016-11-24T07:41:31.548Z,8.43
2016-11-24T07:42:29.705Z,8.44
2016-11-24T07:43:29.599Z,8.39
2016-11-24T07:44:29.586Z,8.44
2016-11-24T07:45:29.578Z,8.46
2016-11-24T07:46:29.589Z,8.43
2016-11-24T07:47:29.617Z,8.47
2016-11-24T07:48:29.773Z,8.44
2016-11-24T07:49:29.511Z,8.46
2016-11-24T07:50:29.688Z,8.52
2016-11-24T07:51:29.493Z,8.58
2016-11-24T07:52:29.575Z,8.58
2016-11-24T07:53:29.453Z,8.5
2016-11-24T07:54:29.497Z,8.44
2016-11-24T07:55:29.618Z,8.49
2016-11-24T07:56:29.617Z,8.42
2016-11-24T07:57:30.093Z,8.53
2016-11-24T07:58:29.674Z,8.42
2016-11-24T07:59:29.601Z,8.43
2016-11-24T08:00:30.171Z,8.49
2016-11-24T08:01:29.846Z,8.44
2016-11-24T08:02:29.722Z,8.57
2016-11-24T08:03:29.507Z,8.53
2016-11-24T08:04:29.855Z,8.58
2016-11-24T08:05:29.649Z,8.47
2016-11-24T08:06:29.938Z,8.52
2016-11-24T08:07:29.735Z,8.61
2016-11-24T08:08:29.501Z,8.57
2016-11-24T08:09:29.490Z,8.42
2016-11-24T08:10:29.576Z,8.47
2016-11-24T08:11:29.652Z,8.57
2016-11-24T08:12:29.704Z,8.47
2016-11-24T08:13:29.816Z,8.5
2016-11-24T08:14:29.863Z,8.57
2016-11-24T08:15:29.706Z,8.53
2016-11-24T08:16:29.805Z,8.49
2016-11-24T08:17:29.539Z,8.52
2016-11-24T08:18:29.879Z,8.52
2016-11-24T08:19:29.625Z,8.42
2016-11-24T08:20:34.559Z,8.39
2016-11-24T08:21:29.630Z,8.46
2016-11-24T08:22:30.668Z,8.46
2016-11-24T08:23:29.658Z,8.47
2016-11-24T08:24:29.872Z,8.39
2016-11-24T08:25:29.898Z,8.42
2016-11-24T08:26:29.533Z,8.44
2016-11-24T08:27:29.706Z,8.34
2016-11-24T08:28:30.081Z,8.36
2016-11-24T08:29:29.707Z,8.42
2016-11-24T08:30:29.566Z,8.35
2016-11-24T08:31:29.960Z,8.28
2016-11-24T08:32:29.715Z,8.34
2016-11-24T08:33:29.907Z,8.42
2016-11-24T08:34:29.825Z,8.36
2016-11-24T08:35:29.920Z,8.36
2016-11-24T08:36:29.717Z,8.44
2016-11-24T08:37:29.821Z,8.42
2016-11-24T08:38:29.842Z,8.36
2016-11-24T08:39:29.889Z,8.29
2016-11-24T08:40:29.921Z,8.42
2016-11-24T08:41:29.885Z,8.46
2016-11-24T08:42:29.778Z,8.46
2016-11-24T08:43:29.921Z,8.52
2016-11-24T08:44:29.617Z,8.47
2016-11-24T08:45:30.030Z,8.44
2016-11-24T08:46:29.833Z,8.46
2016-11-24T08:47:32.930Z,8.4
2016-11-24T08:48:29.668Z,8.47
2016-11-24T08:49:29.662Z,8.4
2016-11-24T08:50:29.865Z,8.36
2016-11-24T08:51:29.808Z,8.5
2016-11-24T08:52:29.727Z,8.6
2016-11-24T08:53:29.645Z,8.5
2016-11-24T08:54:29.677Z,8.39
2016-11-24T08:55:29.641Z,8.49
2016-11-24T08:56:29.729Z,8.58
2016-11-24T08:57:29.949Z,8.46
2016-11-24T08:58:29.774Z,8.5
2016-11-24T08:59:29.853Z,8.69
2016-11-24T09:00:29.802Z,8.5
2016-11-24T09:01:29.939Z,8.54
2016-11-24T09:02:29.965Z,8.58
2016-11-24T09:03:30.085Z,8.58
2016-11-24T09:04:29.700Z,8.61
2016-11-24T09:05:29.797Z,8.62
2016-11-24T09:06:29.938Z,8.62
2016-11-24T09:07:30.027Z,8.57
2016-11-24T09:08:29.890Z,8.64
2016-11-24T09:09:29.792Z,8.65
2016-11-24T09:10:29.847Z,8.57
2016-11-24T09:11:29.926Z,8.62
2016-11-24T09:12:30.037Z,8.64
2016-11-24T09:13:29.789Z,8.49
2016-11-24T09:14:29.940Z,8.6
2016-11-24T09:15:29.841Z,8.64
2016-11-24T09:16:30.048Z,8.64
2016-11-24T09:17:30.095Z,8.53
2016-11-24T09:18:30.006Z,8.58
2016-11-24T09:19:29.719Z,8.52
2016-11-24T09:20:30.100Z,8.62
2016-11-24T09:21:29.724Z,8.65
2016-11-24T09:22:29.971Z,8.67
2016-11-24T09:23:29.849Z,8.6
2016-11-24T09:24:29.912Z,8.64
2016-11-24T09:25:29.722Z,8.72
2016-11-24T09:26:29.738Z,8.67
2016-11-24T09:27:29.974Z,8.67
2016-11-24T09:28:30.063Z,8.74
2016-11-24T09:29:29.873Z,8.71
2016-11-24T09:30:29.866Z,8.79
2016-11-24T09:31:29.828Z,8.72
2016-11-24T09:32:29.883Z,8.76
2016-11-24T09:33:29.855Z,8.74
2016-11-24T09:34:30.756Z,8.85
2016-11-24T09:35:29.819Z,8.89
2016-11-24T09:36:29.901Z,8.83
2016-11-24T09:37:30.058Z,8.82
2016-11-24T09:38:29.991Z,8.85
2016-11-24T09:39:30.017Z,8.87
2016-11-24T09:40:29.959Z,8.77
2016-11-24T09:41:30.363Z,8.74
2016-11-24T09:42:29.891Z,8.82
2016-11-24T09:43:29.885Z,8.85
2016-11-24T09:44:30.077Z,8.83
2016-11-24T09:45:30.070Z,8.83
2016-11-24T09:46:29.911Z,8.87
2016-11-24T09:47:29.936Z,8.94
2016-11-24T09:48:29.774Z,8.8
2016-11-24T09:49:29.819Z,8.83
2016-11-24T09:50:30.228Z,8.87
2016-11-24T09:51:30.089Z,8.92
2016-11-24T09:52:29.942Z,8.9
2016-11-24T09:53:30.080Z,8.94
2016-11-24T09:54:30.332Z,8.92
2016-11-24T09:55:29.814Z,8.97
2016-11-24T09:56:30.140Z,8.98
2016-11-24T09:57:30.080Z,8.94
2016-11-24T09:58:30.253Z,9.03
2016-11-24T09:59:30.316Z,9.05
2016-11-24T10:00:30.399Z,9.11
2016-11-24T10:01:30.784Z,8.98
2016-11-24T10:02:30.438Z,8.98
2016-11-24T10:03:29.990Z,8.85
2016-11-24T10:04:31.477Z,8.92
2016-11-24T10:05:30.237Z,8.86
2016-11-24T10:06:30.011Z,8.87
2016-11-24T10:07:29.878Z,8.83
2016-11-24T10:08:30.150Z,8.74
2016-11-24T10:09:29.973Z,8.77
2016-11-24T10:10:30.173Z,8.8
2016-11-24T10:11:30.102Z,8.72
2016-11-24T10:12:30.118Z,8.82
2016-11-24T10:13:29.859Z,8.86
2016-11-24T10:14:30.896Z,8.72
2016-11-24T10:15:30.448Z,8.77
2016-11-24T10:16:30.017Z,8.8
2016-11-24T10:17:30.079Z,8.79
2016-11-24T10:18:30.213Z,8.79
2016-11-24T10:19:30.952Z,8.9
2016-11-24T10:20:29.880Z,8.85
2016-11-24T10:21:30.271Z,8.79
2016-11-24T10:22:30.841Z,8.83
2016-11-24T10:23:29.888Z,8.8
2016-11-24T10:24:30.115Z,8.86
2016-11-24T10:25:30.056Z,8.8
2016-11-24T10:26:30.106Z,8.89
2016-11-24T10:27:30.320Z,9.03
2016-11-24T10:28:30.099Z,8.89
2016-11-24T10:29:29.914Z,8.92
2016-11-24T10:30:31.055Z,9.04
2016-11-24T10:31:30.178Z,9
2016-11-24T10:32:29.974Z,9.04
2016-11-24T10:33:29.978Z,9.11
2016-11-24T10:34:30.106Z,9.09
2016-11-24T10:35:30.071Z,9.11
2016-11-24T10:36:33.990Z,9.12
2016-11-24T10:37:30.150Z,9.12
2016-11-24T10:38:30.292Z,9.12
2016-11-24T10:39:30.654Z,9.23
2016-11-24T10:40:30.353Z,9.23
2016-11-24T10:41:31.601Z,9.24
2016-11-24T10:42:30.402Z,9.17
2016-11-24T10:43:30.296Z,9.09
2016-11-24T10:44:30.814Z,9.11
2016-11-24T10:45:30.323Z,9.08
2016-11-24T10:46:30.101Z,9.11
2016-11-24T10:47:30.408Z,9.11
2016-11-24T10:48:30.114Z,9.24
2016-11-24T10:49:30.103Z,9.19
2016-11-24T10:50:30.608Z,9.2
2016-11-24T10:51:30.388Z,9.27
2016-11-24T10:52:30.931Z,9.3
2016-11-24T10:53:30.891Z,9.24
2016-11-24T10:54:30.722Z,9.24
2016-11-24T10:55:30.578Z,9.26
2016-11-24T10:56:30.166Z,9.24
2016-11-24T10:57:29.991Z,9.41
2016-11-24T10:58:30.299Z,9.38
2016-11-24T10:59:30.251Z,9.35
2016-11-24T11:00:30.133Z,9.44
2016-11-24T11:01:30.007Z,9.35
2016-11-24T11:02:30.189Z,9.38
2016-11-24T11:03:31.443Z,9.34
2016-11-24T11:04:30.374Z,9.38
2016-11-24T11:05:30.199Z,9.38
2016-11-24T11:06:30.263Z,9.37
2016-11-24T11:07:30.220Z,9.26
2016-11-24T11:08:30.408Z,9.17
2016-11-24T11:09:30.350Z,9.32
2016-11-24T11:10:30.144Z,9.3
2016-11-24T11:11:30.236Z,9.37
2016-11-24T11:12:30.309Z,9.45
2016-11-24T11:13:30.157Z,9.6
2016-11-24T11:14:30.237Z,9.55
2016-11-24T11:15:30.456Z,9.75
2016-11-24T11:16:30.070Z,9.82
2016-11-24T11:17:30.320Z,9.75
2016-11-24T11:18:30.191Z,9.78
2016-11-24T11:19:30.191Z,9.88
2016-11-24T11:20:33.778Z,9.88
2016-11-24T11:21:30.243Z,9.9
2016-11-24T11:22:30.143Z,9.89
2016-11-24T11:23:30.380Z,9.99
2016-11-24T11:24:30.300Z,9.88
2016-11-24T11:25:30.458Z,9.89
2016-11-24T11:26:30.408Z,9.93
2016-11-24T11:27:30.335Z,9.93
2016-11-24T11:28:30.264Z,9.95
2016-11-24T11:29:31.205Z,9.92
2016-11-24T11:30:30.650Z,10.07
2016-11-24T11:31:30.168Z,10.03
2016-11-24T11:32:30.078Z,10.03
2016-11-24T11:33:30.241Z,10.07
2016-11-24T11:34:30.235Z,10.21
2016-11-24T11:35:30.253Z,10.23
2016-11-24T11:36:30.308Z,10.32
2016-11-24T11:37:30.356Z,10.38
2016-11-24T11:38:31.588Z,10.55
2016-11-24T11:39:30.284Z,10.67
2016-11-24T11:40:30.317Z,10.49
2016-11-24T11:41:30.497Z,10.42
2016-11-24T11:42:31.120Z,10.52
2016-11-24T11:43:30.316Z,10.65
2016-11-24T11:44:30.289Z,10.88
2016-11-24T11:45:30.308Z,11.03
2016-11-24T11:46:30.097Z,11.16
2016-11-24T11:47:30.258Z,11.31
2016-11-24T11:48:30.168Z,10.95
2016-11-24T11:49:30.870Z,10.84
2016-11-24T11:50:30.200Z,10.94
2016-11-24T11:51:30.198Z,11.06
2016-11-24T11:52:30.192Z,11.1
2016-11-24T11:53:30.437Z,11.33
2016-11-24T11:54:30.199Z,11.38
2016-11-24T11:55:30.382Z,11.59
2016-11-24T11:56:30.273Z,11.71
2016-11-24T11:57:30.435Z,11.64
2016-11-24T11:58:30.398Z,11.81
2016-11-24T11:59:30.541Z,11.7
2016-11-24T12:00:30.516Z,11.85
2016-11-24T12:01:30.700Z,11.89
2016-11-24T12:02:30.436Z,11.98
2016-11-24T12:03:30.353Z,11.75
2016-11-24T12:04:30.175Z,11.6
2016-11-24T12:05:30.385Z,11.57
2016-11-24T12:06:30.168Z,11.59
2016-11-24T12:07:30.360Z,11.28
2016-11-24T12:08:30.327Z,11.16
2016-11-24T12:09:30.379Z,11
2016-11-24T12:10:30.350Z,11.09
2016-11-24T12:11:30.518Z,11.26
2016-11-24T12:12:30.517Z,11.33
2016-11-24T12:13:30.471Z,11.31
2016-11-24T12:14:31.850Z,11.38
2016-11-24T12:15:30.503Z,11.42
2016-11-24T12:16:30.698Z,11.06
2016-11-24T12:17:30.526Z,10.97
2016-11-24T12:18:30.253Z,11.08
2016-11-24T12:19:30.354Z,11.08
2016-11-24T12:20:30.406Z,11.09
2016-11-24T12:21:31.277Z,10.91
2016-11-24T12:22:30.378Z,10.94
2016-11-24T12:23:30.255Z,11
2016-11-24T12:24:30.700Z,10.9
2016-11-24T12:25:31.275Z,11.06
2016-11-24T12:26:33.585Z,10.92
2016-11-24T12:27:30.241Z,10.95
2016-11-24T12:28:30.610Z,10.98
2016-11-24T12:29:30.519Z,11.1
2016-11-24T12:30:30.444Z,11.15
2016-11-24T12:31:30.248Z,11.12
2016-11-24T12:32:30.560Z,10.97
2016-11-24T12:33:30.403Z,11.02
2016-11-24T12:34:33.872Z,11.08
2016-11-24T12:35:32.687Z,11.06
2016-11-24T12:36:31.049Z,10.97
2016-11-24T12:37:31.785Z,10.88
2016-11-24T12:38:33.609Z,10.83
2016-11-24T12:39:31.707Z,10.72
2016-11-24T12:40:30.379Z,10.69
2016-11-24T12:41:30.591Z,10.58
2016-11-24T12:42:30.612Z,10.57
2016-11-24T12:43:30.482Z,10.46
2016-11-24T12:44:30.535Z,10.28
2016-11-24T12:45:30.475Z,10.32
2016-11-24T12:46:30.320Z,10.25
2016-11-24T12:47:30.758Z,10.14
2016-11-24T12:48:30.321Z,10.13
2016-11-24T12:49:30.386Z,10.28
2016-11-24T12:50:30.557Z,10.31
2016-11-24T12:51:30.334Z,10.29
2016-11-24T12:52:30.497Z,10.31
2016-11-24T12:53:31.291Z,10.46
2016-11-24T12:54:30.645Z,10.49
2016-11-24T12:55:30.534Z,10.49
2016-11-24T12:56:30.499Z,10.32
2016-11-24T12:57:30.676Z,10.17
2016-11-24T12:58:30.517Z,10.14
2016-11-24T12:59:30.468Z,10.18
2016-11-24T13:00:30.334Z,10.13
2016-11-24T13:01:30.696Z,10.17
2016-11-24T13:02:30.601Z,10.13
2016-11-24T13:03:30.619Z,10.07
2016-11-24T13:04:30.507Z,10.14
2016-11-24T13:05:31.768Z,10.26
2016-11-24T13:06:30.418Z,10.31
2016-11-24T13:07:30.718Z,10.28
2016-11-24T13:08:30.430Z,10.25
2016-11-24T13:09:30.682Z,10.23
2016-11-24T13:10:30.624Z,10.25
2016-11-24T13:11:31.143Z,10.29
2016-11-24T13:12:30.910Z,10.31
2016-11-24T13:13:30.787Z,10.33
2016-11-24T13:14:30.600Z,10.17
2016-11-24T13:15:30.731Z,10.18
2016-11-24T13:16:30.623Z,10
2016-11-24T13:17:30.615Z,10.03